sensor_id;sensor_type;location;lat;lon;timestamp;pressure;altitude;pressure_sealevel;temperature;humidity
4012;BME280;2020;48.682;9.024;2023-01-04T00:01:52;97662.72;;;1.84;100.00
4012;BME280;2020;48.682;9.024;2023-01-04T00:04:17;97649.00;;;1.85;100.00
4012;BME280;2020;48.682;9.024;2023-01-04T00:06:43;97642.34;;;1.81;100.00
4012;BME280;2020;48.682;9.024;2023-01-04T00:09:08;97650.94;;;1.80;100.00
4012;BME280;2020;48.682;9.024;2023-01-04T00:11:33;97638.53;;;1.70;100.00
4012;BME280;2020;48.682;9.024;2023-01-04T00:13:59;97634.72;;;1.60;100.00
4012;BME280;2020;48.682;9.024;2023-01-04T00:16:25;97626.34;;;1.56;100.00
4012;BME280;2020;48.682;9.024;2023-01-04T00:18:53;97633.06;;;1.59;100.00
4012;BME280;2020;48.682;9.024;2023-01-04T00:21:21;97631.25;;;1.61;100.00
4012;BME280;2020;48.682;9.024;2023-01-04T00:23:49;97627.16;;;1.57;100.00
4012;BME280;2020;48.682;9.024;2023-01-04T00:26:17;97622.03;;;1.57;100.00
4012;BME280;2020;48.682;9.024;2023-01-04T00:28:43;97622.81;;;1.59;100.00
4012;BME280;2020;48.682;9.024;2023-01-04T00:31:10;97617.66;;;1.59;100.00
4012;BME280;2020;48.682;9.024;2023-01-04T00:33:36;97611.28;;;1.68;100.00
4012;BME280;2020;48.682;9.024;2023-01-04T00:36:09;97608.38;;;1.56;100.00
4012;BME280;2020;48.682;9.024;2023-01-04T00:38:36;97606.50;;;1.60;100.00
4012;BME280;2020;48.682;9.024;2023-01-04T00:41:02;97598.94;;;1.57;100.00
4012;BME280;2020;48.682;9.024;2023-01-04T00:43:28;97600.06;;;1.51;100.00
4012;BME280;2020;48.682;9.024;2023-01-04T00:45:54;97590.63;;;1.52;100.00
4012;BME280;2020;48.682;9.024;2023-01-04T00:48:19;97596.31;;;1.39;100.00
4012;BME280;2020;48.682;9.024;2023-01-04T00:50:45;97586.41;;;1.51;100.00
4012;BME280;2020;48.682;9.024;2023-01-04T00:53:12;97583.97;;;1.48;100.00
4012;BME280;2020;48.682;9.024;2023-01-04T00:55:37;97588.28;;;1.47;100.00
4012;BME280;2020;48.682;9.024;2023-01-04T00:58:03;97584.13;;;1.44;100.00
4012;BME280;2020;48.682;9.024;2023-01-04T01:00:28;97577.19;;;1.46;100.00
4012;BME280;2020;48.682;9.024;2023-01-04T01:02:54;97571.75;;;1.53;100.00
4012;BME280;2020;48.682;9.024;2023-01-04T01:05:19;97575.38;;;1.49;100.00
4012;BME280;2020;48.682;9.024;2023-01-04T01:07:44;97585.34;;;1.55;100.00
4012;BME280;2020;48.682;9.024;2023-01-04T01:10:10;97582.63;;;1.58;100.00
4012;BME280;2020;48.682;9.024;2023-01-04T01:12:35;97585.34;;;1.55;100.00
4012;BME280;2020;48.682;9.024;2023-01-04T01:15:00;97581.75;;;1.59;100.00
4012;BME280;2020;48.682;9.024;2023-01-04T01:17:26;97590.06;;;1.64;100.00
4012;BME280;2020;48.682;9.024;2023-01-04T01:19:51;97588.94;;;1.70;100.00
4012;BME280;2020;48.682;9.024;2023-01-04T01:22:16;97584.00;;;1.65;100.00
4012;BME280;2020;48.682;9.024;2023-01-04T01:24:41;97593.22;;;1.69;100.00
4012;BME280;2020;48.682;9.024;2023-01-04T01:27:07;97596.69;;;1.68;100.00
4012;BME280;2020;48.682;9.024;2023-01-04T01:29:32;97592.75;;;1.61;100.00
4012;BME280;2020;48.682;9.024;2023-01-04T01:31:57;97592.16;;;1.56;100.00
4012;BME280;2020;48.682;9.024;2023-01-04T01:34:23;97585.63;;;1.49;100.00
4012;BME280;2020;48.682;9.024;2023-01-04T01:36:48;97595.63;;;1.55;100.00
4012;BME280;2020;48.682;9.024;2023-01-04T01:39:13;97598.94;;;1.57;100.00
4012;BME280;2020;48.682;9.024;2023-01-04T01:41:39;97595.47;;;1.58;100.00
4012;BME280;2020;48.682;9.024;2023-01-04T01:44:48;97592.00;;;1.59;100.00
4012;BME280;2020;48.682;9.024;2023-01-04T01:46:52;97595.28;;;1.63;100.00
4012;BME280;2020;48.682;9.024;2023-01-04T01:49:27;97595.75;;;1.52;100.00
4012;BME280;2020;48.682;9.024;2023-01-04T01:51:56;97593.34;;;1.49;100.00
4012;BME280;2020;48.682;9.024;2023-01-04T01:54:25;97588.06;;;1.52;100.00
4012;BME280;2020;48.682;9.024;2023-01-04T01:56:54;97594.25;;;1.48;100.00
4012;BME280;2020;48.682;9.024;2023-01-04T01:59:21;97596.03;;;1.45;100.00
4012;BME280;2020;48.682;9.024;2023-01-04T02:01:46;97590.78;;;1.49;100.00
4012;BME280;2020;48.682;9.024;2023-01-04T02:04:13;97587.31;;;1.50;100.00
4012;BME280;2020;48.682;9.024;2023-01-04T02:06:43;97595.13;;;1.46;100.00
4012;BME280;2020;48.682;9.024;2023-01-04T02:09:11;97590.47;;;1.55;100.00
4012;BME280;2020;48.682;9.024;2023-01-04T02:11:36;97585.63;;;1.49;100.00
4012;BME280;2020;48.682;9.024;2023-01-04T02:14:03;97577.94;;;1.49;100.00
4012;BME280;2020;48.682;9.024;2023-01-04T02:17:09;97576.22;;;1.49;100.00
4012;BME280;2020;48.682;9.024;2023-01-04T02:25:57;97574.84;;;1.23;100.00
4012;BME280;2020;48.682;9.024;2023-01-04T02:31:21;97564.72;;;1.20;100.00
4012;BME280;2020;48.682;9.024;2023-01-04T02:36:56;97556.19;;;1.19;100.00
4012;BME280;2020;48.682;9.024;2023-01-04T02:42:06;97544.97;;;1.22;100.00
4012;BME280;2020;48.682;9.024;2023-01-04T02:45:02;97535.38;;;1.25;100.00
4012;BME280;2020;48.682;9.024;2023-01-04T02:47:32;97528.59;;;1.24;100.00
4012;BME280;2020;48.682;9.024;2023-01-04T02:50:21;97540.59;;;1.24;100.00
4012;BME280;2020;48.682;9.024;2023-01-04T02:52:58;97542.16;;;1.26;100.00
4012;BME280;2020;48.682;9.024;2023-01-04T02:55:32;97536.38;;;1.23;100.00
4012;BME280;2020;48.682;9.024;2023-01-04T02:58:11;97537.28;;;1.22;100.00
4012;BME280;2020;48.682;9.024;2023-01-04T03:00:48;97537.28;;;1.22;100.00
4012;BME280;2020;48.682;9.024;2023-01-04T03:06:53;97533.25;;;1.16;100.00
4012;BME280;2020;48.682;9.024;2023-01-04T03:09:26;97528.72;;;1.21;100.00
4012;BME280;2020;48.682;9.024;2023-01-04T03:12:00;97525.34;;;1.21;100.00
4012;BME280;2020;48.682;9.024;2023-01-04T03:14:53;97513.56;;;1.16;100.00
4012;BME280;2020;48.682;9.024;2023-01-04T03:17:25;97508.44;;;1.16;100.00
4012;BME280;2020;48.682;9.024;2023-01-04T03:19:52;97507.59;;;1.16;100.00
4012;BME280;2020;48.682;9.024;2023-01-04T03:22:24;97498.31;;;1.13;100.00
4012;BME280;2020;48.682;9.024;2023-01-04T03:25:11;97506.63;;;1.19;100.00
4012;BME280;2020;48.682;9.024;2023-01-04T03:27:56;97504.97;;;1.17;100.00
4012;BME280;2020;48.682;9.024;2023-01-04T03:30:50;97503.16;;;1.20;100.00
4012;BME280;2020;48.682;9.024;2023-01-04T03:33:36;97515.22;;;1.17;100.00
4012;BME280;2020;48.682;9.024;2023-01-04T03:36:36;97506.63;;;1.19;100.00
4012;BME280;2020;48.682;9.024;2023-01-04T03:42:07;97517.03;;;1.15;100.00
4012;BME280;2020;48.682;9.024;2023-01-04T03:45:15;97513.72;;;1.13;100.00
4012;BME280;2020;48.682;9.024;2023-01-04T03:51:00;97502.41;;;1.17;100.00
4012;BME280;2020;48.682;9.024;2023-01-04T03:53:28;97502.25;;;1.21;100.00
4012;BME280;2020;48.682;9.024;2023-01-04T03:55:54;97497.06;;;1.22;100.00
4012;BME280;2020;48.682;9.024;2023-01-04T03:58:23;97488.41;;;1.25;100.00
4012;BME280;2020;48.682;9.024;2023-01-04T04:00:49;97492.47;;;1.29;100.00
4012;BME280;2020;48.682;9.024;2023-01-04T04:03:14;97483.88;;;1.30;100.00
4012;BME280;2020;48.682;9.024;2023-01-04T04:05:41;97481.94;;;1.35;100.00
4012;BME280;2020;48.682;9.024;2023-01-04T04:08:26;97471.59;;;1.37;100.00
4012;BME280;2020;48.682;9.024;2023-01-04T04:10:59;97478.31;;;1.39;100.00
4012;BME280;2020;48.682;9.024;2023-01-04T04:13:46;97475.97;;;1.35;100.00
4012;BME280;2020;48.682;9.024;2023-01-04T04:16:12;97473.31;;;1.36;100.00
4012;BME280;2020;48.682;9.024;2023-01-04T04:18:37;97470.63;;;1.39;100.00
4012;BME280;2020;48.682;9.024;2023-01-04T04:21:02;97472.22;;;1.42;100.00
4012;BME280;2020;48.682;9.024;2023-01-04T04:23:28;97463.53;;;1.44;100.00
4012;BME280;2020;48.682;9.024;2023-01-04T04:25:53;97463.97;;;1.53;100.00
4012;BME280;2020;48.682;9.024;2023-01-04T04:28:18;97471.53;;;1.56;100.00
4012;BME280;2020;48.682;9.024;2023-01-04T04:30:43;97464.38;;;1.63;100.00
4012;BME280;2020;48.682;9.024;2023-01-04T04:33:09;97463.09;;;1.71;100.00
4012;BME280;2020;48.682;9.024;2023-01-04T04:35:34;97464.59;;;1.75;100.00
4012;BME280;2020;48.682;9.024;2023-01-04T04:37:59;97458.50;;;1.78;100.00
4012;BME280;2020;48.682;9.024;2023-01-04T04:40:24;97463.31;;;1.84;100.00
4012;BME280;2020;48.682;9.024;2023-01-04T04:43:08;97465.50;;;1.92;100.00
4012;BME280;2020;48.682;9.024;2023-01-04T04:45:33;97458.25;;;2.00;100.00
4012;BME280;2020;48.682;9.024;2023-01-04T04:47:59;97455.59;;;2.02;100.00
4012;BME280;2020;48.682;9.024;2023-01-04T04:50:24;97455.28;;;2.08;99.95
4012;BME280;2020;48.682;9.024;2023-01-04T04:52:50;97454.16;;;2.14;100.00
4012;BME280;2020;48.682;9.024;2023-01-04T04:55:15;97458.13;;;2.19;99.69
4012;BME280;2020;48.682;9.024;2023-01-04T04:57:40;97453.69;;;2.23;99.80
4012;BME280;2020;48.682;9.024;2023-01-04T05:00:06;97444.91;;;2.27;100.00
4012;BME280;2020;48.682;9.024;2023-01-04T05:02:32;97450.78;;;2.29;100.00
4012;BME280;2020;48.682;9.024;2023-01-04T05:04:57;97442.41;;;2.26;100.00
4012;BME280;2020;48.682;9.024;2023-01-04T05:07:22;97432.06;;;2.27;100.00
4012;BME280;2020;48.682;9.024;2023-01-04T05:09:48;97437.94;;;2.29;100.00
4012;BME280;2020;48.682;9.024;2023-01-04T05:12:13;97431.97;;;2.29;100.00
4012;BME280;2020;48.682;9.024;2023-01-04T05:14:56;97437.03;;;2.30;100.00
4012;BME280;2020;48.682;9.024;2023-01-04T05:17:22;97436.94;;;2.32;100.00
4012;BME280;2020;48.682;9.024;2023-01-04T05:19:47;97446.00;;;2.39;100.00
4012;BME280;2020;48.682;9.024;2023-01-04T05:22:12;97443.53;;;2.38;100.00
4012;BME280;2020;48.682;9.024;2023-01-04T05:24:37;97438.97;;;2.43;100.00
4012;BME280;2020;48.682;9.024;2023-01-04T05:27:03;97444.75;;;2.46;100.00
4012;BME280;2020;48.682;9.024;2023-01-04T05:29:28;97439.97;;;2.56;100.00
4012;BME280;2020;48.682;9.024;2023-01-04T05:32:12;97434.34;;;2.66;100.00
4012;BME280;2020;48.682;9.024;2023-01-04T05:34:37;97436.69;;;2.70;100.00
4012;BME280;2020;48.682;9.024;2023-01-04T05:37:02;97437.34;;;2.74;100.00
4012;BME280;2020;48.682;9.024;2023-01-04T05:39:28;97438.81;;;2.78;100.00
4012;BME280;2020;48.682;9.024;2023-01-04T05:41:55;97434.59;;;2.77;100.00
4012;BME280;2020;48.682;9.024;2023-01-04T05:44:38;97439.50;;;2.82;100.00
4012;BME280;2020;48.682;9.024;2023-01-04T05:47:04;97435.13;;;2.84;100.00
4012;BME280;2020;48.682;9.024;2023-01-04T05:49:29;97441.97;;;2.83;100.00
4012;BME280;2020;48.682;9.024;2023-01-04T05:51:54;97437.69;;;2.84;100.00
4012;BME280;2020;48.682;9.024;2023-01-04T05:54:19;97428.97;;;2.86;99.54
4012;BME280;2020;48.682;9.024;2023-01-04T05:56:45;97425.75;;;2.83;99.85
4012;BME280;2020;48.682;9.024;2023-01-04T05:59:10;97427.41;;;2.84;99.71
4012;BME280;2020;48.682;9.024;2023-01-04T06:01:35;97413.53;;;2.86;99.95
4012;BME280;2020;48.682;9.024;2023-01-04T06:04:00;97418.66;;;2.86;99.80
4012;BME280;2020;48.682;9.024;2023-01-04T06:06:26;97419.41;;;2.88;99.70
4012;BME280;2020;48.682;9.024;2023-01-04T06:08:51;97414.09;;;2.91;99.63
4012;BME280;2020;48.682;9.024;2023-01-04T06:11:16;97415.75;;;2.92;99.23
4012;BME280;2020;48.682;9.024;2023-01-04T06:13:41;97413.28;;;2.91;99.14
4012;BME280;2020;48.682;9.024;2023-01-04T06:16:07;97416.78;;;2.90;99.04
4012;BME280;2020;48.682;9.024;2023-01-04T06:18:32;97421.81;;;2.91;99.17
4012;BME280;2020;48.682;9.024;2023-01-04T06:20:57;97417.59;;;2.90;98.84
4012;BME280;2020;48.682;9.024;2023-01-04T06:23:22;97410.28;;;2.99;97.37
4012;BME280;2020;48.682;9.024;2023-01-04T06:25:48;97411.94;;;3.00;97.87
4012;BME280;2020;48.682;9.024;2023-01-04T06:28:13;97413.44;;;3.04;97.33
4012;BME280;2020;48.682;9.024;2023-01-04T06:30:38;97413.44;;;3.04;96.86
4012;BME280;2020;48.682;9.024;2023-01-04T06:33:03;97405.19;;;3.13;96.41
4012;BME280;2020;48.682;9.024;2023-01-04T06:35:29;97410.34;;;3.13;96.56
4012;BME280;2020;48.682;9.024;2023-01-04T06:37:54;97411.09;;;3.15;95.98
4012;BME280;2020;48.682;9.024;2023-01-04T06:40:19;97415.31;;;3.16;96.18
4012;BME280;2020;48.682;9.024;2023-01-04T06:42:44;97413.31;;;3.21;94.94
4012;BME280;2020;48.682;9.024;2023-01-04T06:45:11;97416.63;;;3.24;95.16
4012;BME280;2020;48.682;9.024;2023-01-04T06:47:40;97414.06;;;3.24;94.82
4012;BME280;2020;48.682;9.024;2023-01-04T06:50:06;97412.41;;;3.22;95.79
4012;BME280;2020;48.682;9.024;2023-01-04T06:52:32;97411.47;;;3.24;95.32
4012;BME280;2020;48.682;9.024;2023-01-04T06:54:57;97411.66;;;3.20;95.94
4012;BME280;2020;48.682;9.024;2023-01-04T06:57:22;97416.06;;;3.18;95.65
4012;BME280;2020;48.682;9.024;2023-01-04T06:59:48;97416.06;;;3.18;95.37
4012;BME280;2020;48.682;9.024;2023-01-04T07:02:14;97413.41;;;3.20;96.09
4012;BME280;2020;48.682;9.024;2023-01-04T07:04:39;97406.63;;;3.19;95.16
4012;BME280;2020;48.682;9.024;2023-01-04T07:07:05;97411.94;;;3.16;95.15
4012;BME280;2020;48.682;9.024;2023-01-04T07:09:30;97425.59;;;3.16;95.55
4012;BME280;2020;48.682;9.024;2023-01-04T07:11:55;97413.41;;;3.20;95.27
4012;BME280;2020;48.682;9.024;2023-01-04T07:14:22;97408.91;;;3.24;95.25
4012;BME280;2020;48.682;9.024;2023-01-04T07:16:47;97415.81;;;3.23;94.30
4012;BME280;2020;48.682;9.024;2023-01-04T07:19:13;97413.88;;;3.27;94.48
4012;BME280;2020;48.682;9.024;2023-01-04T07:21:38;97414.06;;;3.24;93.55
4012;BME280;2020;48.682;9.024;2023-01-04T07:24:03;97418.13;;;3.28;93.70
4012;BME280;2020;48.682;9.024;2023-01-04T07:26:28;97408.91;;;3.24;93.50
4012;BME280;2020;48.682;9.024;2023-01-04T07:28:54;97410.41;;;3.28;93.23
4012;BME280;2020;48.682;9.024;2023-01-04T07:31:38;97407.75;;;3.29;93.15
4012;BME280;2020;48.682;9.024;2023-01-04T07:34:03;97409.91;;;3.37;92.30
4012;BME280;2020;48.682;9.024;2023-01-04T07:36:28;97412.38;;;3.39;92.29
4012;BME280;2020;48.682;9.024;2023-01-04T07:38:53;97402.09;;;3.39;93.52
4012;BME280;2020;48.682;9.024;2023-01-04T07:41:19;97402.91;;;3.39;93.15
4012;BME280;2020;48.682;9.024;2023-01-04T07:43:44;97396.59;;;3.45;92.58
4012;BME280;2020;48.682;9.024;2023-01-04T07:46:10;97389.13;;;3.40;94.29
4012;BME280;2020;48.682;9.024;2023-01-04T07:48:35;97392.44;;;3.42;92.86
4012;BME280;2020;48.682;9.024;2023-01-04T07:51:00;97395.59;;;3.47;92.60
4012;BME280;2020;48.682;9.024;2023-01-04T07:53:26;97382.78;;;3.46;92.84
4012;BME280;2020;48.682;9.024;2023-01-04T07:55:56;97381.13;;;3.45;92.86
4012;BME280;2020;48.682;9.024;2023-01-04T07:58:21;97381.25;;;3.43;93.24
4012;BME280;2020;48.682;9.024;2023-01-04T08:00:47;97373.34;;;3.46;93.29
4012;BME280;2020;48.682;9.024;2023-01-04T08:03:12;97374.72;;;3.52;93.36
4012;BME280;2020;48.682;9.024;2023-01-04T08:05:37;97370.41;;;3.53;92.06
4012;BME280;2020;48.682;9.024;2023-01-04T08:08:03;97377.22;;;3.54;92.93
4012;BME280;2020;48.682;9.024;2023-01-04T08:10:28;97365.81;;;3.58;92.61
4012;BME280;2020;48.682;9.024;2023-01-04T08:12:53;97360.13;;;3.67;91.07
4012;BME280;2020;48.682;9.024;2023-01-04T08:15:19;97366.28;;;3.64;92.97
4012;BME280;2020;48.682;9.024;2023-01-04T08:17:44;97375.75;;;3.64;92.20
4012;BME280;2020;48.682;9.024;2023-01-04T08:20:09;97369.78;;;3.63;92.51
4012;BME280;2020;48.682;9.024;2023-01-04T08:22:35;97376.22;;;3.71;91.60
4012;BME280;2020;48.682;9.024;2023-01-04T08:25:00;97360.69;;;3.72;92.23
4012;BME280;2020;48.682;9.024;2023-01-04T08:27:25;97373.75;;;3.69;93.33
4012;BME280;2020;48.682;9.024;2023-01-04T08:29:50;97368.22;;;3.75;91.83
4012;BME280;2020;48.682;9.024;2023-01-04T08:32:16;97369.16;;;3.74;91.48
4012;BME280;2020;48.682;9.024;2023-01-04T08:34:41;97371.72;;;3.74;92.24
4012;BME280;2020;48.682;9.024;2023-01-04T08:37:06;97381.66;;;3.80;91.40
4012;BME280;2020;48.682;9.024;2023-01-04T08:39:31;97360.88;;;3.84;91.19
4012;BME280;2020;48.682;9.024;2023-01-04T08:42:00;97363.16;;;3.88;89.89
4012;BME280;2020;48.682;9.024;2023-01-04T08:44:26;97351.69;;;3.94;88.43
4012;BME280;2020;48.682;9.024;2023-01-04T08:46:52;97351.56;;;3.95;87.69
4012;BME280;2020;48.682;9.024;2023-01-04T08:49:18;97359.97;;;3.99;87.51
4012;BME280;2020;48.682;9.024;2023-01-04T08:51:44;97349.00;;;3.95;89.02
4012;BME280;2020;48.682;9.024;2023-01-04T08:54:10;97341.38;;;3.94;88.77
4012;BME280;2020;48.682;9.024;2023-01-04T08:56:35;97341.19;;;3.97;88.15
4012;BME280;2020;48.682;9.024;2023-01-04T08:59:01;97341.00;;;4.00;87.80
4012;BME280;2020;48.682;9.024;2023-01-04T09:01:27;97340.19;;;4.00;87.27
4012;BME280;2020;48.682;9.024;2023-01-04T09:03:52;97330.53;;;4.03;87.85
4012;BME280;2020;48.682;9.024;2023-01-04T09:06:19;97334.03;;;4.02;87.74
4012;BME280;2020;48.682;9.024;2023-01-04T09:08:45;97334.75;;;4.04;87.45
4012;BME280;2020;48.682;9.024;2023-01-04T09:11:15;97332.91;;;4.06;87.11
4012;BME280;2020;48.682;9.024;2023-01-04T09:13:41;97328.50;;;4.08;86.75
4012;BME280;2020;48.682;9.024;2023-01-04T09:16:09;97352.34;;;4.12;86.67
4012;BME280;2020;48.682;9.024;2023-01-04T09:18:35;97327.31;;;4.14;87.01
4012;BME280;2020;48.682;9.024;2023-01-04T09:21:05;97334.19;;;4.14;87.67
4012;BME280;2020;48.682;9.024;2023-01-04T09:23:30;97315.22;;;4.15;86.75
4012;BME280;2020;48.682;9.024;2023-01-04T09:25:59;97299.38;;;4.21;85.74
4012;BME280;2020;48.682;9.024;2023-01-04T09:28:25;97332.88;;;4.21;85.68
4012;BME280;2020;48.682;9.024;2023-01-04T09:30:50;97319.75;;;4.26;86.00
4012;BME280;2020;48.682;9.024;2023-01-04T09:33:15;97322.84;;;4.31;85.84
4012;BME280;2020;48.682;9.024;2023-01-04T09:35:40;97337.28;;;4.33;85.27
4012;BME280;2020;48.682;9.024;2023-01-04T09:38:06;97327.72;;;4.35;86.00
4012;BME280;2020;48.682;9.024;2023-01-04T09:43:16;97331.75;;;4.39;86.64
4012;BME280;2020;48.682;9.024;2023-01-04T09:45:44;97330.63;;;4.44;86.22
4012;BME280;2020;48.682;9.024;2023-01-04T09:48:15;97333.03;;;4.47;85.42
4012;BME280;2020;48.682;9.024;2023-01-04T09:50:50;97324.16;;;4.51;85.98
4012;BME280;2020;48.682;9.024;2023-01-04T09:55:52;97325.63;;;4.55;84.32
4012;BME280;2020;48.682;9.024;2023-01-04T09:58:26;97320.41;;;4.57;86.08
4012;BME280;2020;48.682;9.024;2023-01-04T10:01:01;97325.44;;;4.58;85.64
4012;BME280;2020;48.682;9.024;2023-01-04T10:03:37;97326.38;;;4.57;85.27
4012;BME280;2020;48.682;9.024;2023-01-04T10:06:09;97321.94;;;4.59;85.78
4012;BME280;2020;48.682;9.024;2023-01-04T10:08:36;97332.97;;;4.61;87.31
4012;BME280;2020;48.682;9.024;2023-01-04T10:11:18;97313.09;;;4.63;85.79
4012;BME280;2020;48.682;9.024;2023-01-04T10:13:59;97312.28;;;4.63;85.44
4012;BME280;2020;48.682;9.024;2023-01-04T10:21:49;97309.22;;;4.71;86.04
4012;BME280;2020;48.682;9.024;2023-01-04T10:27:25;97307.38;;;4.73;85.15
4012;BME280;2020;48.682;9.024;2023-01-04T10:30:04;97307.91;;;4.78;85.46
4012;BME280;2020;48.682;9.024;2023-01-04T10:32:40;97305.13;;;4.81;85.15
4012;BME280;2020;48.682;9.024;2023-01-04T10:35:21;97303.28;;;4.83;85.42
4012;BME280;2020;48.682;9.024;2023-01-04T10:37:57;97301.50;;;4.83;85.26
4012;BME280;2020;48.682;9.024;2023-01-04T10:40:24;97292.34;;;4.92;84.61
4012;BME280;2020;48.682;9.024;2023-01-04T10:42:59;97277.81;;;4.91;84.92
4012;BME280;2020;48.682;9.024;2023-01-04T10:45:44;97291.97;;;4.98;84.61
4012;BME280;2020;48.682;9.024;2023-01-04T10:48:26;97279.59;;;5.04;84.23
4012;BME280;2020;48.682;9.024;2023-01-04T10:51:00;97260.19;;;5.11;83.38
4012;BME280;2020;48.682;9.024;2023-01-04T10:53:34;97268.44;;;5.16;84.45
4012;BME280;2020;48.682;9.024;2023-01-04T10:56:21;97270.09;;;5.17;83.88
4012;BME280;2020;48.682;9.024;2023-01-04T10:58:55;97247.41;;;5.22;83.87
4012;BME280;2020;48.682;9.024;2023-01-04T11:01:28;97261.03;;;5.24;83.52
4012;BME280;2020;48.682;9.024;2023-01-04T11:04:19;97255.44;;;5.31;84.32
4012;BME280;2020;48.682;9.024;2023-01-04T11:06:55;97254.53;;;5.32;84.15
4012;BME280;2020;48.682;9.024;2023-01-04T11:09:26;97257.81;;;5.34;83.76
4012;BME280;2020;48.682;9.024;2023-01-04T11:11:55;97265.38;;;5.37;83.27
4012;BME280;2020;48.682;9.024;2023-01-04T11:14:21;97261.66;;;5.41;84.25
4012;BME280;2020;48.682;9.024;2023-01-04T11:16:50;97250.31;;;5.44;82.90
4012;BME280;2020;48.682;9.024;2023-01-04T11:19:20;97242.22;;;5.48;83.08
4012;BME280;2020;48.682;9.024;2023-01-04T11:21:48;97235.41;;;5.47;83.33
4012;BME280;2020;48.682;9.024;2023-01-04T11:24:15;97237.06;;;5.48;83.74
4012;BME280;2020;48.682;9.024;2023-01-04T11:26:43;97241.81;;;5.54;83.29
4012;BME280;2020;48.682;9.024;2023-01-04T11:32:03;97222.19;;;5.52;83.40
4012;BME280;2020;48.682;9.024;2023-01-04T11:34:52;97209.78;;;5.57;84.18
4012;BME280;2020;48.682;9.024;2023-01-04T11:37:32;97212.25;;;5.59;84.37
4012;BME280;2020;48.682;9.024;2023-01-04T11:42:41;97205.03;;;5.64;84.89
4012;BME280;2020;48.682;9.024;2023-01-04T11:45:17;97220.50;;;5.64;84.00
4012;BME280;2020;48.682;9.024;2023-01-04T11:47:47;97212.03;;;5.62;85.27
4012;BME280;2020;48.682;9.024;2023-01-04T11:50:32;97208.31;;;5.66;84.67
4012;BME280;2020;48.682;9.024;2023-01-04T11:52:58;97214.41;;;5.65;84.50
4012;BME280;2020;48.682;9.024;2023-01-04T11:55:24;97213.28;;;5.69;84.66
4012;BME280;2020;48.682;9.024;2023-01-04T11:58:14;97204.59;;;5.70;85.20
4012;BME280;2020;48.682;9.024;2023-01-04T12:00:59;97214.72;;;5.73;83.63
4012;BME280;2020;48.682;9.024;2023-01-04T12:03:27;97200.84;;;5.74;84.24
4012;BME280;2020;48.682;9.024;2023-01-04T12:05:53;97203.94;;;5.79;84.83
4012;BME280;2020;48.682;9.024;2023-01-04T12:08:31;97205.38;;;5.83;85.13
4012;BME280;2020;48.682;9.024;2023-01-04T12:10:59;97194.03;;;5.86;85.19
4012;BME280;2020;48.682;9.024;2023-01-04T12:13:25;97202.38;;;5.90;85.93
4012;BME280;2020;48.682;9.024;2023-01-04T12:16:11;97206.38;;;5.94;86.70
4012;BME280;2020;48.682;9.024;2023-01-04T12:18:41;97206.38;;;5.94;85.38
4012;BME280;2020;48.682;9.024;2023-01-04T12:21:21;97210.25;;;6.01;85.75
4012;BME280;2020;48.682;9.024;2023-01-04T12:23:47;97206.38;;;6.07;85.86
4012;BME280;2020;48.682;9.024;2023-01-04T12:26:13;97205.34;;;6.09;86.15
4012;BME280;2020;48.682;9.024;2023-01-04T12:28:42;97195.41;;;6.16;86.69
4012;BME280;2020;48.682;9.024;2023-01-04T12:33:42;97187.88;;;6.37;86.27
4012;BME280;2020;48.682;9.024;2023-01-04T12:36:16;97196.13;;;6.42;86.72
4012;BME280;2020;48.682;9.024;2023-01-04T12:47:02;97190.28;;;6.52;86.68
4012;BME280;2020;48.682;9.024;2023-01-04T12:54:48;97182.31;;;6.66;84.87
4012;BME280;2020;48.682;9.024;2023-01-04T13:00:14;97173.16;;;6.73;84.79
4012;BME280;2020;48.682;9.024;2023-01-04T13:02:42;97169.41;;;6.78;85.27
4012;BME280;2020;48.682;9.024;2023-01-04T13:07:52;97159.78;;;6.91;83.70
4012;BME280;2020;48.682;9.024;2023-01-04T13:10:34;97152.88;;;6.92;84.76
4012;BME280;2020;48.682;9.024;2023-01-04T13:13:14;97147.31;;;6.96;84.09
4012;BME280;2020;48.682;9.024;2023-01-04T13:16:00;97131.56;;;6.99;83.66
4012;BME280;2020;48.682;9.024;2023-01-04T13:18:34;97147.56;;;7.05;83.56
4012;BME280;2020;48.682;9.024;2023-01-04T13:21:02;97136.03;;;7.09;83.61
4012;BME280;2020;48.682;9.024;2023-01-04T13:23:32;97136.75;;;7.11;83.23
4012;BME280;2020;48.682;9.024;2023-01-04T13:29:07;97137.94;;;7.18;82.85
4012;BME280;2020;48.682;9.024;2023-01-04T13:34:15;97120.50;;;7.20;81.82
4012;BME280;2020;48.682;9.024;2023-01-04T13:36:42;97149.00;;;7.20;82.43
4012;BME280;2020;48.682;9.024;2023-01-04T13:39:07;97142.16;;;7.19;81.86
4012;BME280;2020;48.682;9.024;2023-01-04T13:41:33;97152.53;;;7.19;82.51
4012;BME280;2020;48.682;9.024;2023-01-04T13:44:42;97131.56;;;7.22;82.89
4012;BME280;2020;48.682;9.024;2023-01-04T13:47:13;97125.59;;;7.22;82.02
4012;BME280;2020;48.682;9.024;2023-01-04T13:49:39;97129.69;;;7.24;81.65
4012;BME280;2020;48.682;9.024;2023-01-04T13:52:20;97125.69;;;7.20;83.11
4012;BME280;2020;48.682;9.024;2023-01-04T13:54:46;97122.84;;;7.23;83.23
4012;BME280;2020;48.682;9.024;2023-01-04T13:57:15;97116.03;;;7.22;82.87
4012;BME280;2020;48.682;9.024;2023-01-04T13:59:46;97109.91;;;7.23;82.58
4012;BME280;2020;48.682;9.024;2023-01-04T14:02:15;97109.22;;;7.21;83.22
4012;BME280;2020;48.682;9.024;2023-01-04T14:04:41;97109.09;;;7.23;82.71
4012;BME280;2020;48.682;9.024;2023-01-04T14:07:07;97107.31;;;7.23;83.06
4012;BME280;2020;48.682;9.024;2023-01-04T14:09:44;97097.22;;;7.20;82.54
4012;BME280;2020;48.682;9.024;2023-01-04T14:12:16;97105.91;;;7.19;82.68
4012;BME280;2020;48.682;9.024;2023-01-04T14:15:00;97104.25;;;7.18;83.42
4012;BME280;2020;48.682;9.024;2023-01-04T14:17:53;97100.97;;;7.16;83.16
4012;BME280;2020;48.682;9.024;2023-01-04T14:31:11;97085.69;;;7.13;83.32
4012;BME280;2020;48.682;9.024;2023-01-04T14:38:34;97088.72;;;7.18;83.54
4012;BME280;2020;48.682;9.024;2023-01-04T14:41:31;97076.97;;;7.14;83.86
4012;BME280;2020;48.682;9.024;2023-01-04T14:46:21;97068.25;;;7.15;84.25
4012;BME280;2020;48.682;9.024;2023-01-04T14:48:46;97071.69;;;7.15;84.32
4012;BME280;2020;48.682;9.024;2023-01-04T14:51:17;97083.78;;;7.15;84.26
4012;BME280;2020;48.682;9.024;2023-01-04T14:53:43;97068.50;;;7.12;84.55
4012;BME280;2020;48.682;9.024;2023-01-04T14:56:13;97069.34;;;7.12;84.14
4012;BME280;2020;48.682;9.024;2023-01-04T14:58:38;97080.63;;;7.11;84.96
4012;BME280;2020;48.682;9.024;2023-01-04T15:01:04;97085.69;;;7.13;84.76
4012;BME280;2020;48.682;9.024;2023-01-04T15:03:29;97085.91;;;7.10;84.76
4012;BME280;2020;48.682;9.024;2023-01-04T15:05:55;97074.75;;;7.09;85.41
4012;BME280;2020;48.682;9.024;2023-01-04T15:08:20;97072.03;;;7.11;85.54
4012;BME280;2020;48.682;9.024;2023-01-04T15:10:46;97077.44;;;7.08;85.64
4012;BME280;2020;48.682;9.024;2023-01-04T15:13:12;97072.28;;;7.08;85.48